Startpagina
METAR-TAF:

METAR-TAF

Vliegvelden :

Kansas City, Missouri, Verenigde Staten

Kansas City International Airport

breedte: 39-17-50N, lengte: 094-43-50W, hoogte: 312 m

Actueel weer

Dit bericht is 38 minuten geleden gemaakt, om 03:53 UTC
Wind 7 kt uit het noorden
Temperatuur 17°C
Vochtigheid 72%
Druk 1021 hPa
Zicht: 16.1 km
Onbewolkt

METAR: KMCI 230353Z 35007KT 10SM CLR 17/12 A3015 RMK AO2 SLP202 T01670117

Tijdstip: 23:31 (04:31 UTC)

Verwachting

Dit bericht is 4 uur en het 32 minuten geleden gemaakt, om 23:59 UTC
Verwachting geldig van 23 om 00 UTC tot 23 om 24 UTC
Wind 5 kt uit het noordnoordoosten
Zicht: 10 km
Onbewolkt
Van 23 om 0800 UTC
Wind 2 kt uit variabele richting
Zicht: 9.7 km
Onbewolkt
nevel
Van 23 om 1300 UTC
Wind 5 kt uit het oosten
Zicht: 10 km
Onbewolkt

TAF: KMCI 222359Z 2300/2324 02005KT P6SM SKC FM230800 VRB02KT 6SM BR SKC FM231300 09005KT P6SM SKC

Waarnemingen en weersverwachtingen van meer dan 4000 vliegvelden (METAR en TAF).

De beschikbare stations zijn de gele en rode punten op de kaart.

Ga met uw muis naar het station om de naam te zien.

Klik dan om waarnemingen en weersverwachtingen te zien.

kaart wijzigen: klik op de groene knoppen met een zwart kruis om in te zoomen, op de groene knop met een streepje om uit te zoomen of op de groene pijlen voor aangrenzende kaarten.


METAR-TAF: